createdAt,value
2022-08-17T00:02:01.775Z,100691.81
2022-08-17T00:04:32.941Z,100692.03
2022-08-17T00:06:59.345Z,100694.31
2022-08-17T00:09:25.706Z,100693.72
2022-08-17T00:12:34.615Z,100694.66
2022-08-17T00:14:38.492Z,100695.06
2022-08-17T00:17:06.360Z,100689.09
2022-08-17T00:19:32.872Z,100701.47
2022-08-17T00:22:35.207Z,100702.38
2022-08-17T00:24:49.770Z,100698.66
2022-08-17T00:27:16.454Z,100706.19
2022-08-17T00:29:43.901Z,100707.13
2022-08-17T00:33:14.381Z,100702.84
2022-08-17T00:34:56.880Z,100694.22
2022-08-17T00:37:23.264Z,100698.41
2022-08-17T00:39:49.706Z,100694.00
2022-08-17T00:42:18.652Z,100698.25
2022-08-17T00:44:45.500Z,100699.09
2022-08-17T00:47:11.915Z,100705.97
2022-08-17T00:49:38.285Z,100701.69
2022-08-17T00:52:15.157Z,100697.38
2022-08-17T00:54:44.897Z,100688.34
2022-08-17T00:57:32.588Z,100693.25
2022-08-17T01:00:12.028Z,100698.25
2022-08-17T01:02:43.913Z,100703.84
2022-08-17T01:05:18.671Z,100707.56
2022-08-17T01:07:47.778Z,100702.22
2022-08-17T01:10:59.966Z,100711.28
2022-08-17T01:13:02.420Z,100702.91
2022-08-17T01:15:35.907Z,100710.97
2022-08-17T01:18:03.775Z,100707.31
2022-08-17T01:20:30.355Z,100705.78
2022-08-17T01:23:09.454Z,100701.34
2022-08-17T01:25:36.757Z,100702.56
2022-08-17T01:28:03.822Z,100717.56
2022-08-17T01:30:57.013Z,100714.88
2022-08-17T01:33:16.689Z,100715.25
2022-08-17T01:35:43.120Z,100714.25
2022-08-17T01:38:09.557Z,100722.00
2022-08-17T01:40:46.389Z,100712.59
2022-08-17T01:43:23.974Z,100718.47
2022-08-17T01:46:02.748Z,100722.84
2022-08-17T01:48:32.656Z,100726.06
2022-08-17T01:50:59.890Z,100721.47
2022-08-17T01:53:39.468Z,100720.16
2022-08-17T01:56:10.229Z,100719.00
2022-08-17T01:58:37.783Z,100728.22
2022-08-17T02:01:06.246Z,100725.25
2022-08-17T02:03:34.483Z,100729.88
2022-08-17T02:06:01.308Z,100728.84
2022-08-17T02:08:38.725Z,100728.16
2022-08-17T02:11:19.176Z,100719.00
2022-08-17T02:13:48.690Z,100714.97
2022-08-17T02:16:24.344Z,100725.03
2022-08-17T02:18:50.772Z,100717.75
2022-08-17T02:21:17.278Z,100719.69
2022-08-17T02:23:47.490Z,100719.13
2022-08-17T02:26:24.184Z,100721.91
2022-08-17T02:28:53.499Z,100722.66
2022-08-17T02:31:21.182Z,100722.06
2022-08-17T02:33:47.603Z,100724.19
2022-08-17T02:36:27.504Z,100718.44
2022-08-17T02:38:54.059Z,100718.53
2022-08-17T02:41:20.534Z,100723.50
2022-08-17T02:43:46.893Z,100714.94
2022-08-17T02:46:13.239Z,100719.88
2022-08-17T02:48:39.959Z,100716.06
2022-08-17T02:51:06.852Z,100710.22
2022-08-17T02:53:35.862Z,100710.53
2022-08-17T02:56:03.308Z,100711.59
2022-08-17T02:58:35.413Z,100713.16
2022-08-17T03:01:04.953Z,100709.16
2022-08-17T03:03:31.716Z,100712.47
2022-08-17T03:05:58.130Z,100701.47
2022-08-17T03:08:25.284Z,100707.59
2022-08-17T03:10:51.843Z,100708.94
2022-08-17T03:13:18.268Z,100716.59
2022-08-17T03:15:46.413Z,100710.19
2022-08-17T03:18:24.987Z,100710.44
2022-08-17T03:20:55.160Z,100721.09
2022-08-17T03:23:24.299Z,100722.66
2022-08-17T03:25:53.113Z,100712.47
2022-08-17T03:28:20.894Z,100713.75
2022-08-17T03:30:47.447Z,100714.88
2022-08-17T03:33:14.554Z,100714.72
2022-08-17T03:35:41.160Z,100722.50
2022-08-17T03:38:12.182Z,100723.16
2022-08-17T03:40:57.810Z,100726.63
2022-08-17T03:43:27.940Z,100721.38
2022-08-17T03:46:27.122Z,100725.72
2022-08-17T03:49:19.128Z,100720.72
2022-08-17T03:52:04.073Z,100723.44
2022-08-17T03:54:49.182Z,100723.56
2022-08-17T03:57:16.220Z,100729.06
2022-08-17T03:59:43.039Z,100725.41
2022-08-17T04:02:16.277Z,100728.19
2022-08-17T04:04:42.793Z,100727.13
2022-08-17T04:07:09.765Z,100719.94
2022-08-17T04:09:36.632Z,100720.56
2022-08-17T04:12:04.774Z,100723.25
2022-08-17T04:14:36.271Z,100727.97
2022-08-17T04:17:17.793Z,100724.91
2022-08-17T04:19:44.866Z,100723.25
2022-08-17T04:22:11.200Z,100729.28
2022-08-17T04:24:57.578Z,100735.13
2022-08-17T04:27:25.157Z,100729.22
2022-08-17T04:29:55.031Z,100734.88
2022-08-17T04:33:03.453Z,100733.13
2022-08-17T04:35:09.703Z,100737.81
2022-08-17T04:37:36.118Z,100738.53
2022-08-17T04:40:21.471Z,100736.53
2022-08-17T04:43:01.325Z,100740.50
2022-08-17T04:45:32.240Z,100746.69
2022-08-17T04:47:59.750Z,100740.28
2022-08-17T04:50:26.494Z,100750.03
2022-08-17T04:52:52.910Z,100747.63
2022-08-17T04:55:19.329Z,100751.06
2022-08-17T04:57:45.721Z,100750.78
2022-08-17T05:00:12.600Z,100746.84
2022-08-17T05:02:50.662Z,100754.00
2022-08-17T05:05:24.462Z,100757.41
2022-08-17T05:07:54.280Z,100746.00
2022-08-17T05:10:21.846Z,100745.94
2022-08-17T05:12:56.705Z,100746.03
2022-08-17T05:15:23.070Z,100750.75
2022-08-17T05:17:49.458Z,100748.25
2022-08-17T05:20:15.838Z,100747.78
2022-08-17T05:22:56.949Z,100751.34
2022-08-17T05:25:27.891Z,100757.03
2022-08-17T05:27:57.549Z,100755.06
2022-08-17T05:30:26.538Z,100760.81
2022-08-17T05:33:01.658Z,100759.31
2022-08-17T05:35:31.322Z,100759.34
2022-08-17T05:37:57.921Z,100749.75
2022-08-17T05:40:26.369Z,100744.53
2022-08-17T05:43:05.183Z,100748.31
2022-08-17T05:45:54.455Z,100761.09
2022-08-17T05:48:18.732Z,100752.03
2022-08-17T05:51:06.020Z,100752.91
2022-08-17T05:53:56.067Z,100743.41
2022-08-17T05:56:37.709Z,100747.28
2022-08-17T05:59:13.140Z,100752.91
2022-08-17T06:01:48.496Z,100756.16
2022-08-17T06:04:26.999Z,100753.50
2022-08-17T06:07:31.847Z,100761.50
2022-08-17T06:10:10.675Z,100764.19
2022-08-17T06:13:05.191Z,100760.78
2022-08-17T06:15:48.089Z,100759.34
2022-08-17T06:18:18.598Z,100768.19
2022-08-17T06:21:07.106Z,100772.28
2022-08-17T06:23:41.392Z,100764.81
2022-08-17T06:26:38.463Z,100756.47
2022-08-17T06:29:22.925Z,100762.13
2022-08-17T06:31:50.010Z,100772.28
2022-08-17T06:34:16.775Z,100761.53
2022-08-17T06:37:05.506Z,100763.88
2022-08-17T06:39:39.537Z,100763.59
2022-08-17T06:43:02.190Z,100772.69
2022-08-17T06:45:03.519Z,100778.34
2022-08-17T06:48:01.137Z,100772.97
2022-08-17T06:50:39.932Z,100771.06
2022-08-17T06:53:38.882Z,100768.09
2022-08-17T06:56:18.761Z,100766.41
2022-08-17T06:58:45.539Z,100767.75
2022-08-17T07:01:18.925Z,100777.22
2022-08-17T07:04:12.169Z,100776.25
2022-08-17T07:06:48.903Z,100775.06
2022-08-17T07:09:23.162Z,100778.91
2022-08-17T07:11:52.535Z,100777.00
2022-08-17T07:14:35.077Z,100773.59
2022-08-17T07:17:06.786Z,100785.28
2022-08-17T07:19:36.416Z,100775.50
2022-08-17T07:22:50.494Z,100777.53
2022-08-17T07:25:23.519Z,100784.63
2022-08-17T07:28:02.553Z,100783.47
2022-08-17T07:30:44.614Z,100777.06
2022-08-17T07:33:19.880Z,100782.56
2022-08-17T07:35:48.223Z,100781.38
2022-08-17T07:38:25.770Z,100781.59
2022-08-17T07:41:02.490Z,100785.84
2022-08-17T07:43:35.232Z,100787.31
2022-08-17T07:46:45.026Z,100792.06
2022-08-17T07:49:12.471Z,100790.25
2022-08-17T07:51:45.611Z,100790.06
2022-08-17T07:54:15.136Z,100785.34
2022-08-17T07:57:01.351Z,100787.91
2022-08-17T07:59:33.312Z,100783.75
2022-08-17T08:02:07.882Z,100780.78
2022-08-17T08:04:59.789Z,100786.59
2022-08-17T08:07:34.547Z,100784.28
2022-08-17T08:10:10.865Z,100790.31
2022-08-17T08:12:41.499Z,100792.53
2022-08-17T08:15:44.996Z,100782.69
2022-08-17T08:18:55.842Z,100783.66
2022-08-17T08:21:47.084Z,100789.81
2022-08-17T08:24:31.188Z,100789.31
2022-08-17T08:27:07.033Z,100790.78
2022-08-17T08:29:52.697Z,100795.28
2022-08-17T08:32:24.077Z,100795.63
2022-08-17T08:35:03.960Z,100798.66
2022-08-17T08:37:43.634Z,100804.38
2022-08-17T08:40:33.384Z,100803.16
2022-08-17T08:43:22.534Z,100800.63
2022-08-17T08:46:01.718Z,100802.69
2022-08-17T08:48:52.910Z,100798.56
2022-08-17T08:51:42.286Z,100800.00
2022-08-17T08:54:34.354Z,100804.59
2022-08-17T08:57:34.140Z,100809.00
2022-08-17T09:00:14.606Z,100816.03
2022-08-17T09:03:02.890Z,100814.59
2022-08-17T09:06:04.294Z,100813.41
2022-08-17T09:08:45.896Z,100812.84
2022-08-17T09:11:12.203Z,100808.34
2022-08-17T09:13:56.724Z,100816.19
2022-08-17T09:16:29.994Z,100816.22
2022-08-17T09:19:05.368Z,100817.34
2022-08-17T09:21:47.804Z,100818.13
2022-08-17T09:24:43.603Z,100817.84
2022-08-17T09:27:25.432Z,100810.03
2022-08-17T09:29:58.746Z,100818.28
2022-08-17T09:32:37.883Z,100817.28
2022-08-17T09:35:16.496Z,100819.16
2022-08-17T09:38:03.972Z,100823.25
2022-08-17T09:40:51.929Z,100818.44
2022-08-17T09:43:41.294Z,100823.09
2022-08-17T09:46:23.864Z,100821.31
2022-08-17T09:49:04.349Z,100809.47
2022-08-17T09:51:43.597Z,100813.44
2022-08-17T09:54:38.660Z,100807.75
2022-08-17T09:57:47.375Z,100804.03
2022-08-17T10:00:27.530Z,100807.81
2022-08-17T10:03:29.857Z,100802.69
2022-08-17T10:06:13.145Z,100807.50
2022-08-17T10:08:52.284Z,100808.63
2022-08-17T10:11:51.606Z,100807.38
2022-08-17T10:14:53.607Z,100803.53
2022-08-17T10:17:30.102Z,100803.56
2022-08-17T10:20:06.519Z,100803.44
2022-08-17T10:23:00.461Z,100801.59
2022-08-17T10:25:55.259Z,100796.78
2022-08-17T10:28:30.061Z,100801.78
2022-08-17T10:31:23.395Z,100805.00
2022-08-17T10:33:59.723Z,100801.84
2022-08-17T10:36:41.383Z,100798.72
2022-08-17T10:39:16.885Z,100801.78
2022-08-17T10:41:50.236Z,100802.69
2022-08-17T10:44:39.481Z,100798.66
2022-08-17T10:47:17.561Z,100799.00
2022-08-17T10:49:53.549Z,100796.09
2022-08-17T10:52:19.875Z,100800.72
2022-08-17T10:54:47.462Z,100798.69
2022-08-17T10:57:29.112Z,100798.22
2022-08-17T10:59:56.900Z,100789.03
2022-08-17T11:02:52.797Z,100786.84
2022-08-17T11:05:43.782Z,100779.44
2022-08-17T11:08:33.320Z,100779.44
2022-08-17T11:11:20.871Z,100781.31
2022-08-17T11:13:59.304Z,100781.72
2022-08-17T11:16:56.961Z,100780.91
2022-08-17T11:19:55.308Z,100785.16
2022-08-17T11:23:00.283Z,100783.31
2022-08-17T11:25:38.796Z,100770.09
2022-08-17T11:28:20.737Z,100786.59
2022-08-17T11:31:38.044Z,100789.38
2022-08-17T11:34:26.303Z,100785.00
2022-08-17T11:37:35.147Z,100773.84
2022-08-17T11:40:24.624Z,100769.88
2022-08-17T11:43:25.643Z,100783.72
2022-08-17T11:46:02.152Z,100777.03
2022-08-17T11:49:05.420Z,100773.56
2022-08-17T11:52:04.148Z,100769.22
2022-08-17T11:54:33.258Z,100777.59
2022-08-17T11:57:21.662Z,100779.88
2022-08-17T11:59:48.041Z,100777.09
2022-08-17T12:02:32.853Z,100773.13
2022-08-17T12:05:14.340Z,100776.97
2022-08-17T12:08:03.093Z,100771.22
2022-08-17T12:10:32.515Z,100769.94
2022-08-17T12:13:06.595Z,100772.06
2022-08-17T12:15:41.246Z,100769.50
2022-08-17T12:18:07.798Z,100773.00
2022-08-17T12:20:42.459Z,100768.50
2022-08-17T12:23:28.326Z,100764.97
2022-08-17T12:26:01.151Z,100766.09
2022-08-17T12:28:30.622Z,100762.97
2022-08-17T12:31:17.786Z,100762.72
2022-08-17T12:33:46.356Z,100765.81
2022-08-17T12:36:21.252Z,100767.09
2022-08-17T12:38:54.004Z,100759.88
2022-08-17T12:41:35.360Z,100766.00
2022-08-17T12:44:14.616Z,100762.16
2022-08-17T12:47:04.493Z,100767.22
2022-08-17T12:49:35.381Z,100772.00
2022-08-17T12:52:12.187Z,100761.97
2022-08-17T12:54:59.521Z,100766.66
2022-08-17T12:57:42.319Z,100772.84
2022-08-17T13:00:15.676Z,100758.78
2022-08-17T13:02:57.885Z,100764.81
2022-08-17T13:05:28.702Z,100762.13
2022-08-17T13:07:59.043Z,100759.88
2022-08-17T13:10:32.702Z,100760.72
2022-08-17T13:13:04.858Z,100760.44
2022-08-17T13:15:44.920Z,100750.41
2022-08-17T13:18:36.149Z,100749.16
2022-08-17T13:21:02.609Z,100753.97
2022-08-17T13:23:31.388Z,100748.09
2022-08-17T13:26:06.204Z,100736.34
2022-08-17T13:28:35.933Z,100739.53
2022-08-17T13:31:32.823Z,100734.22
2022-08-17T13:34:24.426Z,100733.38
2022-08-17T13:37:26.035Z,100734.34
2022-08-17T13:40:13.139Z,100720.56
2022-08-17T13:42:50.363Z,100721.94
2022-08-17T13:45:35.307Z,100720.38
2022-08-17T13:48:12.346Z,100717.16
2022-08-17T13:50:55.875Z,100714.63
2022-08-17T13:53:35.911Z,100708.66
2022-08-17T13:56:33.448Z,100711.34
2022-08-17T13:59:00.546Z,100713.06
2022-08-17T14:01:53.623Z,100709.94
2022-08-17T14:04:24.574Z,100717.44
2022-08-17T14:06:56.927Z,100717.72
2022-08-17T14:09:37.000Z,100718.00
2022-08-17T14:12:08.803Z,100719.97
2022-08-17T14:14:36.221Z,100713.78
2022-08-17T14:17:03.337Z,100716.72
2022-08-17T14:19:29.793Z,100711.78
2022-08-17T14:21:58.960Z,100712.78
2022-08-17T14:24:31.754Z,100715.59
2022-08-17T14:27:00.161Z,100711.22
2022-08-17T14:29:28.512Z,100717.84
2022-08-17T14:31:56.410Z,100717.00
2022-08-17T14:34:24.884Z,100721.81
2022-08-17T14:36:52.304Z,100718.97
2022-08-17T14:39:19.169Z,100706.97
2022-08-17T14:41:46.109Z,100710.78
2022-08-17T14:44:13.110Z,100704.03
2022-08-17T14:46:41.656Z,100701.75
2022-08-17T14:49:13.377Z,100705.69
2022-08-17T14:51:46.591Z,100701.47
2022-08-17T14:54:34.164Z,100702.91
2022-08-17T14:57:24.662Z,100700.63
2022-08-17T14:59:56.634Z,100705.16
2022-08-17T15:02:30.265Z,100709.97
2022-08-17T15:05:05.218Z,100691.34
2022-08-17T15:07:32.003Z,100696.56
2022-08-17T15:12:40.710Z,100686.25
2022-08-17T15:15:13.257Z,100684.84
2022-08-17T15:17:53.887Z,100682.25
2022-08-17T15:23:18.992Z,100677.25
2022-08-17T15:25:48.885Z,100678.63
2022-08-17T19:07:24.548Z,100859.00
2022-08-17T19:10:20.337Z,100852.25
2022-08-17T19:13:13.867Z,100865.00
2022-08-17T19:16:11.610Z,100860.38
2022-08-17T19:18:40.471Z,100841.53
2022-08-17T19:21:21.426Z,100837.09
2022-08-17T19:23:55.462Z,100859.41
2022-08-17T19:26:53.853Z,100855.91
2022-08-17T19:29:19.516Z,100854.28
2022-08-17T19:31:49.175Z,100840.09
2022-08-17T19:34:30.073Z,100817.63
2022-08-17T19:37:06.863Z,100795.84
2022-08-17T19:39:43.386Z,100793.63
2022-08-17T19:42:37.071Z,100798.09
2022-08-17T19:45:28.089Z,100794.84
2022-08-17T19:48:03.486Z,100790.44
2022-08-17T19:50:41.409Z,100793.81
2022-08-17T19:53:20.533Z,100796.41
2022-08-17T19:55:53.888Z,100805.31
2022-08-17T19:58:36.745Z,100802.41
2022-08-17T20:01:07.650Z,100794.16
2022-08-17T20:03:52.725Z,100774.84
2022-08-17T20:06:21.180Z,100769.91
2022-08-17T20:09:01.163Z,100787.22
2022-08-17T20:11:33.637Z,100781.56
2022-08-17T20:14:20.310Z,100777.47
2022-08-17T20:16:46.965Z,100776.63
2022-08-17T20:19:36.679Z,100773.88
2022-08-17T20:22:52.130Z,100760.06
2022-08-17T20:25:49.673Z,100762.97
2022-08-17T20:28:38.789Z,100777.84
2022-08-17T20:31:41.997Z,100760.34
2022-08-17T20:34:33.708Z,100751.53
2022-08-17T20:37:15.131Z,100756.16
2022-08-17T20:39:45.784Z,100739.00
2022-08-17T20:42:15.252Z,100736.81
2022-08-17T20:44:43.024Z,100736.72
2022-08-17T20:47:26.971Z,100741.56
2022-08-17T20:50:25.284Z,100751.91
2022-08-17T20:52:54.128Z,100756.25
2022-08-17T20:55:36.268Z,100763.34
2022-08-17T20:58:30.631Z,100747.72
2022-08-17T21:00:57.527Z,100741.50
2022-08-17T21:03:23.959Z,100751.38
2022-08-17T21:06:17.518Z,100746.59
2022-08-17T21:08:57.807Z,100752.56
2022-08-17T21:11:56.696Z,100765.88
2022-08-17T21:14:31.702Z,100756.50
2022-08-17T21:17:04.702Z,100760.09
2022-08-17T21:19:44.334Z,100767.06
2022-08-17T21:22:57.916Z,100737.38
2022-08-17T21:25:34.018Z,100739.78
2022-08-17T21:28:33.804Z,100752.81
2022-08-17T21:31:08.332Z,100742.72
2022-08-17T21:33:38.266Z,100727.09
2022-08-17T21:36:14.101Z,100731.69
2022-08-17T21:38:48.747Z,100735.41
2022-08-17T21:41:34.780Z,100735.69
2022-08-17T21:44:10.851Z,100738.72
2022-08-17T21:46:42.703Z,100751.44
2022-08-17T21:49:16.697Z,100752.91
2022-08-17T21:51:54.824Z,100748.41
2022-08-17T21:54:27.211Z,100754.00
2022-08-17T21:56:54.212Z,100751.28
2022-08-17T21:59:28.089Z,100759.34
2022-08-17T22:01:57.834Z,100747.94
2022-08-17T22:04:36.575Z,100745.72
2022-08-17T22:07:06.423Z,100742.13
2022-08-17T22:09:40.312Z,100735.75
2022-08-17T22:12:09.025Z,100730.91
2022-08-17T22:14:52.090Z,100726.75
2022-08-17T22:17:26.282Z,100736.06
2022-08-17T22:20:15.795Z,100730.94
2022-08-17T22:23:03.959Z,100728.72
2022-08-17T22:25:33.005Z,100736.72
2022-08-17T22:28:01.886Z,100734.69
2022-08-17T22:30:57.562Z,100738.09
2022-08-17T22:33:33.260Z,100738.34
2022-08-17T22:36:35.208Z,100735.72
2022-08-17T22:39:10.488Z,100741.47
2022-08-17T22:41:57.084Z,100742.97
2022-08-17T22:44:29.431Z,100724.94
2022-08-17T22:47:14.643Z,100726.19
2022-08-17T22:49:53.182Z,100735.59
2022-08-17T22:52:32.864Z,100732.09
2022-08-17T22:55:34.949Z,100723.47
2022-08-17T22:58:27.998Z,100721.16
2022-08-17T23:00:54.582Z,100731.09
2022-08-17T23:03:27.061Z,100733.72
2022-08-17T23:06:10.942Z,100735.84
2022-08-17T23:08:54.549Z,100742.81
2022-08-17T23:11:43.007Z,100739.31
2022-08-17T23:14:14.377Z,100739.41
2022-08-17T23:16:44.160Z,100739.09
2022-08-17T23:19:16.386Z,100728.28
2022-08-17T23:21:44.725Z,100728.59
2022-08-17T23:24:16.947Z,100729.41
2022-08-17T23:26:43.385Z,100727.81
2022-08-17T23:29:09.911Z,100731.41
2022-08-17T23:31:45.697Z,100739.41
2022-08-17T23:34:14.853Z,100732.03
2022-08-17T23:36:41.912Z,100723.41
2022-08-17T23:39:08.247Z,100730.72
2022-08-17T23:41:38.530Z,100734.72
2022-08-17T23:44:06.237Z,100730.25
2022-08-17T23:46:32.750Z,100731.63
2022-08-17T23:48:59.422Z,100737.06
2022-08-17T23:51:37.239Z,100733.66
2022-08-17T23:54:43.611Z,100739.16
2022-08-17T23:57:12.652Z,100734.50
2022-08-17T23:59:39.663Z,100731.56
